Time;durP1;ratioP1;P1;durP2;ratioP2;P2;SDS_P1;SDS_P2;PMS_P1;PMS_P2;Temp;Humidity;BMP_temperature;BMP_pressure;BME280_temperature;BME280_humidity;BME280_pressure;Samples;Min_cycle;Max_cycle;Signal;HPM_P1;HPM_P2
2023/02/10 00:01:22;;;;;;;42.83;21.50;;;2.70;99.90;;;;;;4937715;28;92525;-73
2023/02/10 00:03:49;;;;;;;42.20;20.23;;;2.60;99.90;;;;;;4937716;28;92524;-73
2023/02/10 00:06:21;;;;;;;46.88;21.13;;;2.60;99.90;;;;;;4938234;28;93325;-73
2023/02/10 00:08:50;;;;;;;42.17;21.20;;;2.60;99.90;;;;;;4938791;28;93047;-73
2023/02/10 00:11:18;;;;;;;41.80;19.48;;;2.60;99.90;;;;;;4921292;28;92588;-73
2023/02/10 00:13:45;;;;;;;41.90;20.48;;;2.60;99.90;;;;;;4938186;28;91695;-73
2023/02/10 00:16:14;;;;;;;46.95;20.73;;;2.60;99.90;;;;;;4938547;28;93621;-73
2023/02/10 00:18:42;;;;;;;43.00;20.38;;;2.60;99.90;;;;;;4937392;28;92546;-73
2023/02/10 00:21:12;;;;;;;42.42;17.40;;;2.60;99.90;;;;;;4937345;28;94790;-73
2023/02/10 00:23:39;;;;;;;43.92;19.52;;;2.60;99.90;;;;;;4938872;28;92492;-73
2023/02/10 00:26:10;;;;;;;45.28;20.92;;;2.60;99.90;;;;;;4936587;28;103880;-73
2023/02/10 00:28:38;;;;;;;39.63;19.73;;;2.60;99.90;;;;;;4937465;28;93073;-73
2023/02/10 00:31:10;;;;;;;40.38;19.70;;;2.60;99.90;;;;;;4938230;28;93107;-73
2023/02/10 00:33:37;;;;;;;46.60;21.17;;;2.60;99.90;;;;;;4937016;28;92549;-73
2023/02/10 00:36:07;;;;;;;45.40;19.05;;;2.60;99.90;;;;;;4936610;28;95951;-73
2023/02/10 00:38:34;;;;;;;45.08;18.27;;;2.60;99.90;;;;;;4938831;28;93127;-73
2023/02/10 00:41:10;;;;;;;43.75;18.75;;;2.60;99.90;;;;;;4919920;28;92464;-73
2023/02/10 00:43:39;;;;;;;51.40;20.75;;;2.60;99.90;;;;;;4938423;28;92375;-73
2023/02/10 00:46:06;;;;;;;47.92;20.45;;;2.50;99.90;;;;;;4935280;28;99182;-73
2023/02/10 00:48:33;;;;;;;41.33;20.02;;;2.60;99.90;;;;;;4936772;28;97906;-73
2023/02/10 00:51:01;;;;;;;48.25;19.98;;;2.60;99.90;;;;;;4936960;28;92422;-73
2023/02/10 00:53:28;;;;;;;46.83;21.02;;;2.50;99.90;;;;;;4936786;28;92606;-73
2023/02/10 00:55:55;;;;;;;45.53;18.95;;;2.50;99.90;;;;;;4936954;28;93948;-73
2023/02/10 00:58:23;;;;;;;45.85;20.70;;;2.60;99.90;;;;;;4936398;28;95575;-73
2023/02/10 01:00:53;;;;;;;49.13;20.23;;;2.50;99.90;;;;;;4936724;28;92490;-73
2023/02/10 01:03:21;;;;;;;46.33;19.50;;;2.60;99.90;;;;;;4938429;28;92327;-73
2023/02/10 01:05:48;;;;;;;43.47;18.73;;;2.50;99.90;;;;;;4920116;28;95799;-73
2023/02/10 01:08:16;;;;;;;44.92;19.73;;;2.50;99.90;;;;;;4938199;28;92390;-73
2023/02/10 01:10:43;;;;;;;42.05;19.65;;;2.50;99.90;;;;;;4967981;28;94999;-73
2023/02/10 01:13:12;;;;;;;43.47;19.35;;;2.50;99.90;;;;;;4936234;28;92518;-73
2023/02/10 01:15:44;;;;;;;40.53;18.08;;;2.50;99.90;;;;;;4920263;28;95802;-73
2023/02/10 01:18:19;;;;;;;47.30;18.70;;;2.50;99.90;;;;;;4936172;28;92927;-73
2023/02/10 01:20:46;;;;;;;40.10;19.48;;;2.50;99.90;;;;;;4936539;28;92579;-73
2023/02/10 01:23:13;;;;;;;47.08;19.17;;;2.50;99.90;;;;;;4919972;28;92592;-73
2023/02/10 01:25:40;;;;;;;38.97;19.67;;;2.50;99.90;;;;;;4919781;28;96139;-73
2023/02/10 01:28:09;;;;;;;42.03;19.27;;;2.50;99.90;;;;;;4936768;28;93061;-73
2023/02/10 01:30:37;;;;;;;42.10;19.45;;;2.50;99.90;;;;;;4936240;28;93370;-73
2023/02/10 01:33:04;;;;;;;46.03;20.00;;;2.40;99.90;;;;;;4936561;28;92844;-73
2023/02/10 01:35:31;;;;;;;48.33;19.45;;;2.40;99.90;;;;;;4934805;28;98141;-73
2023/02/10 01:37:58;;;;;;;50.35;21.65;;;2.50;99.90;;;;;;4937136;28;95722;-73
2023/02/10 01:40:26;;;;;;;43.55;19.65;;;2.40;99.90;;;;;;4920021;28;92469;-73
2023/02/10 01:42:53;;;;;;;45.42;19.60;;;2.40;99.90;;;;;;4935887;28;92496;-73
2023/02/10 01:45:37;;;;;;;51.90;19.63;;;2.40;99.90;;;;;;4935475;28;95896;-73
2023/02/10 01:48:06;;;;;;;44.50;18.77;;;2.50;99.90;;;;;;4936015;28;93485;-73
2023/02/10 01:50:42;;;;;;;40.00;19.13;;;2.40;99.90;;;;;;4968238;28;92585;-73
2023/02/10 01:53:13;;;;;;;39.60;18.02;;;2.40;99.90;;;;;;4935943;28;91801;-73
2023/02/10 01:55:44;;;;;;;41.13;17.08;;;2.40;99.90;;;;;;4935922;28;93638;-73
2023/02/10 01:58:15;;;;;;;42.60;16.92;;;2.40;99.90;;;;;;4937108;28;92986;-73
2023/02/10 02:00:42;;;;;;;42.40;15.93;;;2.40;99.90;;;;;;4936081;28;94792;-73
2023/02/10 02:03:09;;;;;;;41.45;16.60;;;2.40;99.90;;;;;;4935144;28;101662;-73
2023/02/10 02:05:39;;;;;;;38.28;16.63;;;2.40;99.90;;;;;;4934608;28;94448;-73
2023/02/10 02:08:09;;;;;;;33.47;15.88;;;2.40;99.90;;;;;;4935648;28;95747;-73
2023/02/10 02:10:47;;;;;;;45.40;19.27;;;2.40;99.90;;;;;;4935524;28;92510;-73
2023/02/10 02:13:27;;;;;;;40.80;16.92;;;2.40;99.90;;;;;;4935835;28;92474;-73
2023/02/10 02:16:04;;;;;;;37.35;16.20;;;2.30;99.90;;;;;;4935065;28;96162;-73
2023/02/10 02:18:55;;;;;;;42.55;17.60;;;2.40;99.90;;;;;;4935980;28;92780;-73
2023/02/10 02:21:47;;;;;;;42.58;17.90;;;2.40;99.90;;;;;;4919169;28;92539;-73
2023/02/10 02:24:14;;;;;;;36.33;17.15;;;2.40;99.90;;;;;;4936616;28;92438;-73
2023/02/10 02:26:52;;;;;;;45.50;16.73;;;2.30;99.90;;;;;;4935212;28;96599;-73
2023/02/10 02:29:45;;;;;;;39.22;17.45;;;2.30;99.90;;;;;;4936859;28;95431;-73
2023/02/10 02:32:18;;;;;;;39.72;18.05;;;2.30;99.90;;;;;;4919220;28;92521;-74
2023/02/10 02:35:02;;;;;;;39.38;18.05;;;2.20;99.90;;;;;;4935293;28;92462;-73
2023/02/10 02:37:37;;;;;;;38.80;17.33;;;2.20;99.90;;;;;;4935034;28;95905;-73
2023/02/10 02:40:04;;;;;;;36.55;17.17;;;2.20;99.90;;;;;;4935159;28;95062;-73
2023/02/10 02:42:33;;;;;;;35.67;17.08;;;2.10;99.90;;;;;;4936324;28;92837;-73
2023/02/10 02:45:13;;;;;;;48.10;17.55;;;2.10;99.90;;;;;;4935377;28;91810;-73
2023/02/10 02:47:46;;;;;;;41.70;17.30;;;2.10;99.90;;;;;;4935095;28;93213;-73
2023/02/10 02:50:24;;;;;;;41.65;18.20;;;2.10;99.90;;;;;;4934967;28;95362;-73
2023/02/10 02:53:28;;;;;;;38.42;17.73;;;2.10;99.90;;;;;;4935373;28;94769;-73
2023/02/10 02:56:29;;;;;;;40.50;17.70;;;2.10;99.90;;;;;;4935067;28;93037;-73
2023/02/10 02:59:26;;;;;;;40.58;18.73;;;2.10;99.90;;;;;;4934994;28;96117;-73
2023/02/10 03:01:55;;;;;;;46.42;18.20;;;2.00;99.90;;;;;;4948288;28;95587;-73
2023/02/10 03:04:23;;;;;;;39.78;17.73;;;2.00;99.90;;;;;;4935546;28;92326;-73
2023/02/10 03:06:50;;;;;;;50.22;19.90;;;2.00;99.90;;;;;;4935718;28;92456;-74
2023/02/10 03:09:17;;;;;;;49.20;19.10;;;2.00;99.90;;;;;;4918701;28;95719;-73
2023/02/10 03:11:44;;;;;;;45.92;18.90;;;2.00;99.90;;;;;;4936252;28;93386;-73
2023/02/10 03:14:11;;;;;;;45.83;19.45;;;2.00;99.90;;;;;;4935037;28;92912;-73
2023/02/10 03:16:39;;;;;;;36.95;18.70;;;2.00;99.90;;;;;;4936067;28;92475;-73
2023/02/10 03:19:06;;;;;;;49.10;17.77;;;2.00;99.90;;;;;;4901454;28;98516;-73
2023/02/10 03:21:33;;;;;;;48.63;19.60;;;2.00;99.90;;;;;;4934284;28;98305;-73
2023/02/10 03:24:00;;;;;;;45.97;19.20;;;2.00;99.90;;;;;;4918308;28;103028;-73
2023/02/10 03:26:31;;;;;;;42.72;19.67;;;2.00;99.90;;;;;;4934405;28;92487;-74
2023/02/10 03:28:58;;;;;;;49.95;19.15;;;2.00;99.90;;;;;;4934818;28;93306;-73
2023/02/10 03:31:25;;;;;;;38.33;17.50;;;2.00;99.90;;;;;;4934516;28;93104;-73
2023/02/10 03:33:52;;;;;;;46.30;19.40;;;2.00;99.90;;;;;;4918347;28;92342;-73
2023/02/10 03:36:19;;;;;;;50.80;17.88;;;2.00;99.90;;;;;;4936267;28;91704;-73
2023/02/10 03:38:46;;;;;;;46.92;20.25;;;2.00;99.90;;;;;;4934372;28;93311;-73
2023/02/10 03:41:13;;;;;;;42.80;18.77;;;2.00;99.90;;;;;;4918330;28;94299;-73
2023/02/10 03:43:43;;;;;;;42.20;19.15;;;2.00;99.90;;;;;;4965851;28;95538;-73
2023/02/10 03:46:11;;;;;;;48.03;20.00;;;2.00;99.90;;;;;;4918834;28;92506;-73
2023/02/10 03:48:38;;;;;;;47.75;20.30;;;2.10;99.90;;;;;;4934286;28;93297;-73
2023/02/10 03:51:06;;;;;;;55.17;20.63;;;2.10;99.90;;;;;;4935783;28;93001;-73
2023/02/10 03:53:34;;;;;;;44.28;20.08;;;2.10;99.90;;;;;;4934081;28;92439;-74
2023/02/10 03:56:01;;;;;;;42.15;19.50;;;2.10;99.90;;;;;;4934621;28;92500;-73
2023/02/10 03:58:29;;;;;;;43.67;18.60;;;2.10;99.90;;;;;;4935501;28;93675;-73
2023/02/10 04:00:56;;;;;;;38.33;19.05;;;2.10;99.90;;;;;;4934224;28;93718;-73
2023/02/10 04:03:23;;;;;;;49.95;20.27;;;2.10;99.90;;;;;;4918192;28;92480;-73
2023/02/10 04:05:50;;;;;;;39.03;19.13;;;2.10;99.90;;;;;;4917305;28;92576;-73
2023/02/10 04:08:17;;;;;;;46.83;18.50;;;2.10;99.90;;;;;;4932858;28;95808;-73
2023/02/10 04:10:44;;;;;;;39.95;17.80;;;2.10;99.90;;;;;;4917818;28;98470;-73
2023/02/10 04:13:11;;;;;;;46.92;19.25;;;2.10;99.90;;;;;;4902150;28;92486;-73
2023/02/10 04:15:38;;;;;;;46.55;19.17;;;2.10;99.90;;;;;;4935625;28;100187;-73
2023/02/10 04:18:05;;;;;;;40.67;19.13;;;2.10;99.90;;;;;;4921298;28;95870;-73
2023/02/10 04:20:32;;;;;;;42.97;19.67;;;2.20;99.90;;;;;;4937500;28;93066;-73
2023/02/10 04:22:59;;;;;;;42.85;19.25;;;2.20;99.90;;;;;;4938446;28;92480;-73
2023/02/10 04:25:26;;;;;;;43.33;17.92;;;2.20;99.90;;;;;;4939027;28;91651;-73
2023/02/10 04:27:53;;;;;;;41.45;19.13;;;2.30;99.90;;;;;;4937015;28;95762;-73
2023/02/10 04:30:20;;;;;;;40.40;17.90;;;2.30;99.90;;;;;;4938579;28;93545;-73
2023/02/10 04:32:47;;;;;;;33.58;18.23;;;2.40;99.90;;;;;;4937271;28;94834;-73
2023/02/10 04:35:14;;;;;;;41.25;19.08;;;2.40;99.90;;;;;;4937350;28;92516;-73
2023/02/10 04:37:41;;;;;;;33.13;17.23;;;2.40;99.90;;;;;;4904535;28;94127;-73
2023/02/10 04:40:08;;;;;;;47.50;19.10;;;2.50;99.90;;;;;;4937122;28;93487;-73
2023/02/10 04:42:35;;;;;;;44.90;19.00;;;2.50;99.90;;;;;;4937258;28;92568;-73
2023/02/10 04:45:02;;;;;;;43.47;17.80;;;2.50;99.90;;;;;;4921279;28;92579;-73
2023/02/10 04:47:30;;;;;;;40.38;18.58;;;2.60;99.90;;;;;;4936893;28;93264;-73
2023/02/10 04:49:56;;;;;;;43.75;18.63;;;2.60;99.90;;;;;;4937091;28;93150;-73
2023/02/10 04:52:23;;;;;;;40.60;17.25;;;2.60;99.90;;;;;;4920863;28;92416;-73
2023/02/10 04:54:50;;;;;;;40.40;19.10;;;2.60;99.90;;;;;;4936861;28;92566;-73
2023/02/10 04:57:17;;;;;;;40.42;17.73;;;2.60;99.90;;;;;;4919625;28;95968;-73
2023/02/10 04:59:44;;;;;;;42.15;17.77;;;2.60;99.90;;;;;;4936531;28;95544;-73
2023/02/10 05:02:11;;;;;;;45.78;18.13;;;2.70;99.90;;;;;;4936698;28;92453;-73
2023/02/10 05:04:39;;;;;;;36.38;17.88;;;2.60;99.90;;;;;;4936826;28;92462;-74
2023/02/10 05:07:06;;;;;;;39.05;18.58;;;2.60;99.90;;;;;;4935803;28;92566;-73
2023/02/10 05:09:32;;;;;;;33.50;16.73;;;2.60;99.90;;;;;;4936702;28;92977;-73
2023/02/10 05:11:59;;;;;;;39.95;18.10;;;2.50;99.90;;;;;;4936599;28;92996;-73
2023/02/10 05:14:26;;;;;;;36.50;18.05;;;2.50;99.90;;;;;;4920964;28;91822;-73
2023/02/10 05:16:53;;;;;;;35.75;17.80;;;2.50;99.90;;;;;;4937508;28;93577;-73
2023/02/10 05:19:20;;;;;;;43.78;18.00;;;2.50;99.90;;;;;;4936291;28;93089;-74
2023/02/10 05:21:48;;;;;;;35.67;17.75;;;2.50;99.90;;;;;;4936522;28;94840;-73
2023/02/10 05:24:15;;;;;;;47.28;18.05;;;2.50;99.90;;;;;;4920187;28;92564;-73
2023/02/10 05:26:42;;;;;;;42.20;18.27;;;2.40;99.90;;;;;;4936193;28;93379;-73
2023/02/10 05:29:09;;;;;;;39.60;17.33;;;2.40;99.90;;;;;;4937281;28;93183;-73
2023/02/10 05:31:36;;;;;;;33.42;17.48;;;2.40;99.90;;;;;;4937791;28;92475;-73
2023/02/10 05:34:03;;;;;;;34.47;17.02;;;2.40;99.90;;;;;;4936469;28;93493;-73
2023/02/10 05:36:30;;;;;;;41.10;18.08;;;2.40;99.90;;;;;;4937426;28;99899;-73
2023/02/10 05:41:44;;;;;;;43.67;19.30;;;2.40;99.90;;;;;;4936048;28;92482;-73
2023/02/10 05:44:11;;;;;;;39.75;16.20;;;2.30;99.90;;;;;;4937439;28;92494;-73
2023/02/10 05:46:38;;;;;;;33.65;17.80;;;2.30;99.90;;;;;;4918712;28;98195;-73
2023/02/10 05:49:05;;;;;;;32.38;17.15;;;2.30;99.90;;;;;;4937170;28;95335;-73
2023/02/10 05:51:32;;;;;;;42.63;17.30;;;2.30;99.90;;;;;;4935934;28;92414;-73
2023/02/10 05:54:00;;;;;;;35.13;16.65;;;2.30;99.90;;;;;;4937239;28;92440;-73
2023/02/10 05:56:27;;;;;;;36.35;16.77;;;2.30;99.90;;;;;;4937284;28;93217;-73
2023/02/10 05:58:54;;;;;;;38.17;16.65;;;2.30;99.90;;;;;;4937058;28;93424;-73
2023/02/10 06:01:22;;;;;;;37.70;17.60;;;2.30;99.90;;;;;;4919832;28;92426;-73
2023/02/10 06:03:49;;;;;;;38.47;17.30;;;2.30;99.90;;;;;;4936182;28;91709;-73
2023/02/10 06:06:16;;;;;;;33.92;16.20;;;2.40;99.90;;;;;;4935382;28;93202;-73
2023/02/10 06:08:43;;;;;;;33.65;15.73;;;2.40;99.90;;;;;;4937108;28;93039;-73
2023/02/10 06:11:13;;;;;;;33.85;16.38;;;2.50;99.90;;;;;;4919242;28;94895;-73
2023/02/10 06:13:41;;;;;;;39.03;15.82;;;2.50;99.90;;;;;;4935428;28;92587;-73
2023/02/10 06:16:10;;;;;;;30.83;15.73;;;2.50;99.90;;;;;;4935270;28;95860;-73
2023/02/10 06:18:38;;;;;;;32.72;15.32;;;2.50;99.90;;;;;;4919698;28;96057;-73
2023/02/10 06:21:05;;;;;;;35.33;15.70;;;2.50;99.90;;;;;;4935639;28;93055;-74
2023/02/10 06:23:32;;;;;;;34.13;16.25;;;2.50;99.90;;;;;;4935498;28;92519;-73
2023/02/10 06:26:00;;;;;;;33.70;16.20;;;2.50;99.90;;;;;;4918876;28;95897;-73
2023/02/10 06:28:27;;;;;;;30.85;15.15;;;2.50;99.90;;;;;;4936907;28;93055;-73
2023/02/10 06:30:55;;;;;;;31.52;15.30;;;2.50;99.90;;;;;;4935465;28;92418;-73
2023/02/10 06:33:22;;;;;;;35.70;15.80;;;2.40;99.90;;;;;;4936728;28;92475;-73
2023/02/10 06:35:49;;;;;;;37.50;14.88;;;2.40;99.90;;;;;;4917937;28;98347;-73
2023/02/10 06:38:16;;;;;;;38.63;16.70;;;2.40;99.90;;;;;;4934529;28;98042;-73
2023/02/10 06:40:43;;;;;;;34.55;15.70;;;2.30;99.90;;;;;;4935861;28;92357;-73
2023/02/10 06:43:11;;;;;;;29.10;15.13;;;2.30;99.90;;;;;;4918879;28;92729;-73
2023/02/10 06:45:38;;;;;;;31.13;15.75;;;2.30;99.90;;;;;;4935354;28;93392;-73
2023/02/10 06:48:05;;;;;;;25.13;15.02;;;2.30;99.90;;;;;;4936107;28;92953;-73
2023/02/10 06:50:32;;;;;;;31.95;14.55;;;2.30;99.90;;;;;;4936506;28;92371;-73
2023/02/10 06:52:59;;;;;;;44.35;15.30;;;2.30;99.90;;;;;;4935562;28;91704;-73
2023/02/10 06:55:26;;;;;;;31.95;15.15;;;2.20;99.90;;;;;;4936303;28;93320;-73
2023/02/10 06:57:53;;;;;;;26.58;13.32;;;2.20;99.90;;;;;;4902983;28;96128;-73
2023/02/10 07:00:20;;;;;;;30.50;15.25;;;2.20;99.90;;;;;;4935187;28;94944;-74
2023/02/10 07:02:47;;;;;;;32.40;15.32;;;2.20;99.90;;;;;;4918983;28;92475;-73
2023/02/10 07:05:16;;;;;;;30.92;15.52;;;2.20;99.90;;;;;;4934425;28;95531;-73
2023/02/10 07:07:43;;;;;;;32.72;15.20;;;2.20;99.90;;;;;;4934576;28;92520;-73
2023/02/10 07:10:11;;;;;;;31.77;15.77;;;2.20;99.90;;;;;;4934600;28;92485;-73
2023/02/10 07:12:38;;;;;;;35.95;15.40;;;2.20;99.90;;;;;;4936224;28;92426;-74
2023/02/10 07:15:06;;;;;;;28.48;15.35;;;2.20;99.90;;;;;;4935736;28;93189;-73
2023/02/10 07:17:33;;;;;;;29.83;14.90;;;2.20;99.90;;;;;;4936421;28;92990;-73
2023/02/10 07:20:00;;;;;;;26.65;14.68;;;2.20;99.90;;;;;;4934428;28;92514;-73
2023/02/10 07:22:27;;;;;;;29.70;15.27;;;2.20;99.90;;;;;;4934445;28;92953;-73
2023/02/10 07:24:54;;;;;;;35.05;15.68;;;2.20;99.90;;;;;;4934741;28;95576;-73
2023/02/10 07:27:21;;;;;;;34.92;16.45;;;2.20;99.90;;;;;;4934544;28;95764;-73
2023/02/10 07:29:48;;;;;;;31.70;15.05;;;2.20;99.90;;;;;;4936076;28;92501;-73
2023/02/10 07:32:15;;;;;;;31.55;14.55;;;2.20;99.90;;;;;;4936083;28;92490;-73
2023/02/10 07:34:42;;;;;;;28.38;15.13;;;2.30;99.90;;;;;;4935620;28;93746;-73
2023/02/10 07:37:09;;;;;;;28.63;14.98;;;2.30;99.90;;;;;;4934271;28;96001;-73
2023/02/10 07:39:36;;;;;;;26.92;13.38;;;2.30;99.90;;;;;;4934471;28;92554;-73
2023/02/10 07:42:03;;;;;;;27.38;13.80;;;2.30;99.90;;;;;;4934915;28;91728;-73
2023/02/10 07:44:50;;;;;;;29.20;14.13;;;2.40;99.90;;;;;;4934415;28;94028;-73
2023/02/10 07:47:17;;;;;;;29.60;14.00;;;2.50;99.90;;;;;;4935358;28;93204;-74
2023/02/10 07:49:44;;;;;;;24.52;14.15;;;2.50;99.90;;;;;;4934628;28;94846;-73
2023/02/10 07:52:11;;;;;;;29.23;14.07;;;2.60;99.90;;;;;;4937612;28;92523;-74
2023/02/10 07:54:38;;;;;;;30.05;13.75;;;2.70;99.90;;;;;;4937845;28;92504;-74
2023/02/10 07:57:05;;;;;;;28.65;13.80;;;2.80;99.90;;;;;;4937501;28;95797;-74
2023/02/10 07:59:32;;;;;;;25.70;12.82;;;2.90;99.90;;;;;;4938941;28;92337;-74
2023/02/10 08:01:59;;;;;;;30.13;13.75;;;3.00;99.90;;;;;;4938849;28;92424;-73
2023/02/10 08:04:26;;;;;;;21.25;12.13;;;3.10;99.90;;;;;;4937345;28;93293;-73
2023/02/10 08:06:55;;;;;;;20.38;13.20;;;3.10;99.90;;;;;;4937096;28;93016;-74
2023/02/10 08:09:22;;;;;;;23.17;12.95;;;3.20;99.90;;;;;;4937656;28;92378;-74
2023/02/10 08:11:49;;;;;;;23.88;12.32;;;3.30;99.90;;;;;;4937787;28;92565;-74
2023/02/10 08:14:17;;;;;;;23.65;13.63;;;3.40;99.90;;;;;;4937251;28;95977;-74
2023/02/10 08:16:44;;;;;;;23.38;12.70;;;3.40;99.90;;;;;;4921052;28;96562;-74
2023/02/10 08:19:11;;;;;;;25.67;14.55;;;3.50;99.90;;;;;;4938542;28;92450;-74
2023/02/10 08:21:38;;;;;;;22.08;12.43;;;3.60;99.90;;;;;;4921510;28;93872;-73
2023/02/10 08:24:05;;;;;;;26.27;14.70;;;3.70;99.90;;;;;;4938513;28;93191;-74
2023/02/10 08:26:32;;;;;;;20.08;12.77;;;3.80;99.90;;;;;;4937348;28;93494;-74
2023/02/10 08:28:59;;;;;;;23.25;13.45;;;3.90;99.90;;;;;;4938490;28;92522;-74
2023/02/10 08:31:27;;;;;;;26.35;14.80;;;4.00;99.90;;;;;;4937912;28;92123;-73
2023/02/10 08:33:54;;;;;;;24.02;13.38;;;4.00;99.90;;;;;;4920878;28;95878;-74
2023/02/10 08:36:22;;;;;;;21.95;14.57;;;4.10;99.90;;;;;;4936979;28;93217;-73
2023/02/10 08:38:50;;;;;;;22.55;13.63;;;4.20;99.90;;;;;;4936095;28;94945;-73
2023/02/10 08:41:21;;;;;;;22.92;13.88;;;4.40;99.90;;;;;;4936680;28;92577;-73
2023/02/10 08:43:48;;;;;;;21.80;12.93;;;4.50;99.90;;;;;;4936866;28;93423;-73
2023/02/10 08:46:15;;;;;;;22.60;12.95;;;4.70;99.90;;;;;;4938048;28;93110;-73
2023/02/10 08:48:42;;;;;;;21.60;12.82;;;4.80;99.90;;;;;;4936885;28;92467;-73
2023/02/10 08:51:11;;;;;;;19.92;13.02;;;5.00;99.90;;;;;;4938232;28;92334;-74
2023/02/10 08:53:38;;;;;;;22.33;12.45;;;5.10;99.90;;;;;;4936854;28;95130;-73
2023/02/10 08:56:08;;;;;;;21.35;12.65;;;5.10;99.90;;;;;;4938450;28;93207;-74
2023/02/10 08:58:35;;;;;;;21.20;12.70;;;5.20;99.90;;;;;;4937931;28;92367;-73
2023/02/10 09:01:11;;;;;;;23.13;12.98;;;5.20;99.90;;;;;;4936890;28;92508;-74
2023/02/10 09:03:39;;;;;;;22.13;13.15;;;5.30;99.90;;;;;;4934325;28;98849;-73
2023/02/10 09:06:23;;;;;;;23.75;12.98;;;5.30;99.90;;;;;;4936928;28;93026;-73
2023/02/10 09:08:52;;;;;;;21.38;13.15;;;5.40;99.90;;;;;;4937396;28;92525;-73
2023/02/10 09:11:23;;;;;;;20.67;12.77;;;5.40;99.90;;;;;;4936546;28;92580;-73
2023/02/10 09:13:53;;;;;;;22.45;13.45;;;5.40;99.90;;;;;;4937979;28;93175;-73
2023/02/10 09:16:20;;;;;;;22.45;12.85;;;5.30;99.90;;;;;;4936271;28;95728;-73
2023/02/10 09:18:47;;;;;;;23.75;13.10;;;5.30;99.90;;;;;;4904566;28;95234;-73
2023/02/10 09:21:14;;;;;;;20.52;13.30;;;5.30;99.90;;;;;;4936565;28;91724;-73
2023/02/10 09:23:41;;;;;;;21.60;12.82;;;5.20;99.90;;;;;;4937881;28;93190;-73
2023/02/10 09:26:11;;;;;;;24.20;13.30;;;5.10;99.90;;;;;;4920462;28;95856;-73
2023/02/10 09:28:38;;;;;;;42.50;18.60;;;5.10;99.90;;;;;;4919015;28;94844;-74
2023/02/10 09:31:08;;;;;;;24.27;14.18;;;5.00;99.90;;;;;;4937648;28;92493;-73
2023/02/10 09:33:35;;;;;;;24.88;14.20;;;5.00;99.90;;;;;;4937123;28;92393;-73
2023/02/10 09:36:06;;;;;;;23.42;13.77;;;5.00;99.90;;;;;;4936194;28;92979;-73
2023/02/10 09:38:35;;;;;;;25.95;14.27;;;5.00;99.90;;;;;;4937695;28;92407;-73
2023/02/10 09:41:08;;;;;;;23.90;13.93;;;5.00;99.90;;;;;;4936174;28;92595;-73
2023/02/10 09:43:49;;;;;;;24.98;15.45;;;5.10;99.90;;;;;;4936140;28;93315;-73
2023/02/10 09:46:41;;;;;;;24.27;15.27;;;5.10;99.90;;;;;;4937711;28;93492;-73
2023/02/10 09:49:46;;;;;;;25.70;15.00;;;5.20;99.90;;;;;;4936300;28;92524;-73
2023/02/10 09:52:34;;;;;;;25.23;14.48;;;5.30;99.90;;;;;;4937428;28;92857;-73
2023/02/10 09:55:08;;;;;;;25.67;15.60;;;5.40;99.90;;;;;;4934535;28;98276;-73
2023/02/10 09:57:48;;;;;;;29.13;15.02;;;5.40;99.90;;;;;;4935889;28;95481;-73
2023/02/10 10:00:27;;;;;;;24.45;15.73;;;5.50;99.90;;;;;;4968325;28;92396;-73
2023/02/10 10:02:56;;;;;;;22.15;15.40;;;5.60;99.90;;;;;;4934905;28;92489;-73
2023/02/10 10:05:37;;;;;;;22.52;15.35;;;5.70;99.90;;;;;;4935463;28;95843;-73
2023/02/10 10:08:28;;;;;;;23.77;14.18;;;5.90;99.90;;;;;;4919101;28;95552;-73
2023/02/10 10:11:02;;;;;;;20.52;14.45;;;5.90;99.90;;;;;;4935387;28;92558;-73
2023/02/10 10:13:30;;;;;;;26.33;15.90;;;6.10;99.90;;;;;;4935804;28;91675;-73
2023/02/10 10:16:29;;;;;;;25.77;13.80;;;6.20;99.90;;;;;;4935735;28;93160;-73
2023/02/10 10:19:17;;;;;;;22.13;14.02;;;6.30;99.90;;;;;;4914708;28;92900;-73
2023/02/10 10:22:29;;;;;;;22.95;15.20;;;6.50;99.90;;;;;;4935427;28;94852;-73
2023/02/10 10:25:17;;;;;;;20.63;13.80;;;6.60;99.90;;;;;;4935485;28;92496;-73
2023/02/10 10:27:59;;;;;;;24.90;14.60;;;6.70;99.90;;;;;;4936649;28;93693;-73
2023/02/10 10:30:51;;;;;;;22.20;14.40;;;6.70;99.90;;;;;;4919052;28;95765;-73
2023/02/10 10:33:25;;;;;;;24.23;14.05;;;6.80;99.90;;;;;;4936947;28;93203;-73
2023/02/10 10:35:52;;;;;;;25.42;13.98;;;6.90;99.90;;;;;;4935318;28;93011;-73
2023/02/10 10:38:25;;;;;;;21.40;14.23;;;6.90;99.90;;;;;;4936538;28;93273;-73
2023/02/10 10:40:58;;;;;;;23.17;13.63;;;7.00;99.90;;;;;;4935458;28;94545;-73
2023/02/10 10:43:41;;;;;;;27.35;14.10;;;7.10;99.90;;;;;;4935348;28;92393;-73
2023/02/10 10:46:28;;;;;;;22.05;14.50;;;7.20;99.90;;;;;;4951629;28;92425;-73
2023/02/10 10:48:56;;;;;;;21.27;14.35;;;7.30;99.90;;;;;;4935013;28;95788;-73
2023/02/10 10:51:23;;;;;;;24.73;15.32;;;7.30;99.90;;;;;;4935151;28;95666;-73
2023/02/10 10:53:53;;;;;;;21.63;14.40;;;7.40;99.90;;;;;;4936537;28;92459;-73
2023/02/10 10:56:47;;;;;;;27.10;15.38;;;7.50;99.90;;;;;;4935075;28;92498;-73
2023/02/10 10:59:25;;;;;;;21.90;13.87;;;7.60;99.90;;;;;;4936383;28;93256;-73
2023/02/10 11:01:52;;;;;;;22.35;12.85;;;7.70;99.90;;;;;;4936660;28;92988;-73
2023/02/10 11:04:25;;;;;;;22.35;13.00;;;7.80;99.90;;;;;;4936475;28;92597;-73
2023/02/10 11:06:55;;;;;;;25.13;13.37;;;7.80;99.90;;;;;;4936436;28;91724;-73
2023/02/10 11:09:32;;;;;;;23.38;11.75;;;7.90;99.90;;;;;;4934581;28;96115;-73
2023/02/10 11:12:15;;;;;;;26.15;12.43;;;8.00;99.90;;;;;;4936046;28;92363;-73
2023/02/10 11:14:48;;;;;;;23.33;12.98;;;8.10;99.90;;;;;;4933444;28;95489;-73
2023/02/10 11:17:34;;;;;;;24.70;11.80;;;8.10;99.90;;;;;;4935241;28;92448;-73
2023/02/10 11:20:26;;;;;;;20.63;11.38;;;8.20;99.90;;;;;;4934763;28;93522;-73
2023/02/10 11:23:23;;;;;;;22.42;12.25;;;8.30;99.90;;;;;;4926295;28;93126;-74
2023/02/10 11:26:09;;;;;;;20.15;11.77;;;8.40;99.90;;;;;;4921765;28;92479;-73
2023/02/10 11:28:36;;;;;;;21.67;11.77;;;8.40;99.90;;;;;;4934590;28;92491;-74
2023/02/10 11:31:12;;;;;;;25.15;12.65;;;8.50;99.90;;;;;;4934564;28;93352;-74
2023/02/10 11:33:43;;;;;;;21.30;11.50;;;8.50;99.90;;;;;;4967147;28;93102;-74
2023/02/10 11:36:13;;;;;;;22.15;11.35;;;8.60;99.90;;;;;;4934744;28;93631;-73
2023/02/10 11:38:40;;;;;;;21.58;11.82;;;8.70;99.90;;;;;;4934664;28;92774;-73
2023/02/10 11:41:09;;;;;;;23.60;12.63;;;8.70;99.90;;;;;;4933061;28;95881;-73
2023/02/10 11:43:44;;;;;;;21.42;10.63;;;8.80;99.90;;;;;;4934279;28;95622;-74
2023/02/10 11:48:28;;;;;;;18.73;10.40;;;8.80;99.90;;;;;;5021142;27;87667;-74
2023/02/10 11:51:05;;;;;;;19.52;11.05;;;8.80;99.90;;;;;;5033097;27;99405;-71
2023/02/10 11:53:37;;;;;;;20.95;11.68;;;8.90;99.90;;;;;;5032610;28;89741;-72
2023/02/10 11:59:26;;;;;;;19.85;10.73;;;9.20;99.90;;;;;;5033975;27;88638;-72
2023/02/10 12:01:56;;;;;;;20.15;10.95;;;9.20;99.90;;;;;;5033571;28;89485;-72
2023/02/10 12:04:41;;;;;;;19.65;9.23;;;9.30;99.90;;;;;;5032921;28;89302;-72
2023/02/10 12:07:41;;;;;;;16.50;9.60;;;9.40;99.90;;;;;;5033271;28;91205;-72
2023/02/10 12:10:36;;;;;;;17.77;9.02;;;9.50;99.90;;;;;;5034852;28;88129;-72
2023/02/10 12:13:16;;;;;;;;;;;9.70;99.90;;;;;;5032188;27;95908;-72
2023/02/10 12:15:44;;;;;;;14.10;8.85;;;9.60;99.90;;;;;;5035768;28;87397;-72
2023/02/10 12:18:22;;;;;;;14.38;8.57;;;9.70;99.90;;;;;;5016482;28;89341;-72
2023/02/10 12:21:05;;;;;;;16.38;8.23;;;9.80;99.90;;;;;;5034536;28;88163;-72
2023/02/10 12:23:47;;;;;;;20.70;9.50;;;9.90;99.90;;;;;;5034765;28;88170;-72
2023/02/10 12:26:14;;;;;;;20.38;8.57;;;10.00;99.90;;;;;;5033502;28;87530;-73
2023/02/10 12:29:01;;;;;;;16.80;7.60;;;10.00;99.90;;;;;;5034241;28;88848;-72
2023/02/10 12:31:47;;;;;;;13.95;8.25;;;10.20;99.90;;;;;;5033468;28;88408;-72
2023/02/10 12:35:12;;;;;;;14.68;7.50;;;10.20;99.90;;;;;;5034667;28;88335;-73
2023/02/10 12:37:44;;;;;;;17.02;7.60;;;10.30;99.90;;;;;;4975427;28;88291;-73
2023/02/10 12:40:37;;;;;;;19.23;7.18;;;10.30;99.90;;;;;;4992401;28;88663;-72
2023/02/10 12:43:26;;;;;;;15.35;7.28;;;10.40;99.90;;;;;;5030788;27;88139;-72
2023/02/10 12:46:11;;;;;;;14.35;6.53;;;10.40;99.90;;;;;;5034073;28;87541;-72
2023/02/10 12:48:49;;;;;;;15.60;5.88;;;10.60;99.90;;;;;;5016197;28;89480;-73
2023/02/10 12:51:22;;;;;;;12.73;5.72;;;10.70;99.90;;;;;;5034117;28;88294;-73
2023/02/10 12:54:13;;;;;;;12.05;5.65;;;10.80;99.90;;;;;;5015850;28;90595;-73
2023/02/10 12:56:46;;;;;;;11.10;5.47;;;10.90;99.90;;;;;;5032696;28;90332;-73
2023/02/10 12:59:16;;;;;;;11.50;5.53;;;11.00;99.90;;;;;;5024282;27;87427;-73
2023/02/10 13:01:54;;;;;;;12.98;5.75;;;10.90;99.90;;;;;;5019047;28;98195;-73
2023/02/10 13:04:33;;;;;;;11.15;6.10;;;10.90;99.90;;;;;;5019488;28;87949;-73
2023/02/10 13:07:08;;;;;;;11.30;5.53;;;11.00;99.90;;;;;;5003093;28;87697;-73
2023/02/10 13:09:55;;;;;;;14.33;6.07;;;10.90;99.90;;;;;;5019250;28;89078;-73